createdAt,value
2022-08-19T00:00:45.252Z,26.20
2022-08-19T00:01:45.205Z,21.50
2022-08-19T00:02:50.003Z,20.60
2022-08-19T00:03:45.186Z,22.00
2022-08-19T00:04:45.206Z,26.00
2022-08-19T00:05:45.170Z,22.60
2022-08-19T00:06:45.203Z,27.90
2022-08-19T00:07:45.147Z,21.60
2022-08-19T00:08:45.141Z,22.60
2022-08-19T00:09:45.132Z,23.20
2022-08-19T00:10:45.119Z,23.50
2022-08-19T00:11:45.139Z,24.10
2022-08-19T00:12:46.905Z,27.70
2022-08-19T00:13:45.089Z,23.60
2022-08-19T00:14:45.076Z,22.90
2022-08-19T00:15:45.073Z,22.00
2022-08-19T00:16:45.063Z,23.70
2022-08-19T00:17:45.081Z,23.60
2022-08-19T00:18:45.043Z,24.10
2022-08-19T00:19:45.024Z,25.50
2022-08-19T00:20:45.020Z,24.60
2022-08-19T00:21:45.016Z,22.70
2022-08-19T00:22:45.035Z,22.50
2022-08-19T00:23:44.993Z,28.00
2022-08-19T00:24:50.891Z,26.20
2022-08-19T00:25:48.590Z,27.20
2022-08-19T00:26:44.967Z,26.90
2022-08-19T00:27:45.023Z,29.00
2022-08-19T00:28:44.943Z,23.50
2022-08-19T00:29:44.937Z,28.20
2022-08-19T00:30:44.931Z,26.60
2022-08-19T00:31:44.920Z,26.40
2022-08-19T00:32:44.905Z,31.80
2022-08-19T00:33:44.941Z,26.40
2022-08-19T00:34:44.887Z,27.90
2022-08-19T00:35:44.877Z,28.30
2022-08-19T00:36:44.881Z,25.80
2022-08-19T00:37:44.859Z,25.70
2022-08-19T00:38:44.894Z,26.80
2022-08-19T00:39:44.856Z,29.40
2022-08-19T00:40:44.833Z,26.40
2022-08-19T00:41:46.487Z,25.90
2022-08-19T00:42:44.805Z,29.20
2022-08-19T00:43:44.801Z,24.20
2022-08-19T00:44:44.805Z,21.80
2022-08-19T00:45:44.781Z,27.20
2022-08-19T00:46:44.772Z,24.60
2022-08-19T00:47:45.764Z,28.20
2022-08-19T00:48:44.755Z,26.90
2022-08-19T00:49:44.758Z,26.50
2022-08-19T00:50:51.890Z,28.70
2022-08-19T00:51:45.722Z,26.10
2022-08-19T00:52:44.711Z,24.70
2022-08-19T00:53:44.750Z,28.30
2022-08-19T00:54:44.697Z,25.60
2022-08-19T00:55:44.680Z,26.30
2022-08-19T00:56:44.672Z,22.00
2022-08-19T00:57:44.662Z,27.30
2022-08-19T00:58:44.684Z,24.30
2022-08-19T01:00:00.498Z,26.80
2022-08-19T01:00:45.635Z,27.80
2022-08-19T01:01:44.654Z,24.00
2022-08-19T01:02:44.614Z,24.70
2022-08-19T01:03:57.925Z,26.90
2022-08-19T01:04:45.613Z,26.60
2022-08-19T01:05:44.588Z,24.20
2022-08-19T01:06:44.572Z,28.00
2022-08-19T01:07:44.566Z,28.20
2022-08-19T01:08:44.558Z,25.30
2022-08-19T01:09:44.567Z,24.10
2022-08-19T01:10:44.539Z,32.50
2022-08-19T01:11:44.529Z,29.20
2022-08-19T01:12:44.524Z,28.90
2022-08-19T01:13:50.026Z,24.60
2022-08-19T01:14:45.545Z,30.10
2022-08-19T01:15:44.495Z,25.00
2022-08-19T01:16:44.482Z,28.90
2022-08-19T01:17:44.475Z,28.20
2022-08-19T01:18:44.469Z,26.90
2022-08-19T01:19:44.816Z,26.40
2022-08-19T01:20:44.447Z,31.80
2022-08-19T01:21:44.436Z,29.70
2022-08-19T01:22:44.421Z,28.40
2022-08-19T01:23:44.416Z,27.80
2022-08-19T01:24:49.574Z,30.30
2022-08-19T01:25:45.470Z,25.00
2022-08-19T01:26:44.387Z,32.00
2022-08-19T01:27:44.374Z,31.50
2022-08-19T01:28:44.366Z,23.90
2022-08-19T01:29:44.359Z,25.40
2022-08-19T01:30:44.610Z,28.30
2022-08-19T01:31:45.432Z,29.30
2022-08-19T01:32:44.441Z,29.50
2022-08-19T01:33:44.315Z,30.50
2022-08-19T01:34:44.302Z,25.40
2022-08-19T01:35:44.335Z,30.00
2022-08-19T01:36:44.286Z,26.90
2022-08-19T01:37:44.279Z,24.20
2022-08-19T01:38:44.644Z,24.90
2022-08-19T01:39:44.333Z,22.80
2022-08-19T01:40:44.277Z,24.30
2022-08-19T01:41:44.240Z,22.20
2022-08-19T01:42:44.226Z,23.20
2022-08-19T01:44:09.985Z,23.20
2022-08-19T01:44:45.207Z,27.30
2022-08-19T01:45:44.199Z,23.70
2022-08-19T01:46:44.203Z,22.50
2022-08-19T01:47:44.181Z,29.90
2022-08-19T01:48:45.170Z,27.40
2022-08-19T01:49:44.175Z,27.60
2022-08-19T01:50:44.165Z,26.70
2022-08-19T01:51:44.157Z,27.10
2022-08-19T01:52:44.136Z,25.70
2022-08-19T01:53:44.121Z,26.90
2022-08-19T01:54:44.112Z,25.30
2022-08-19T01:55:44.104Z,26.80
2022-08-19T01:56:44.113Z,23.00
2022-08-19T01:57:45.081Z,29.70
2022-08-19T01:58:44.071Z,23.40
2022-08-19T01:59:44.067Z,27.10
2022-08-19T02:00:44.055Z,23.50
2022-08-19T02:01:44.059Z,27.90
2022-08-19T02:02:44.297Z,24.90
2022-08-19T02:03:44.031Z,21.60
2022-08-19T02:04:44.013Z,23.10
2022-08-19T02:05:44.008Z,26.70
2022-08-19T02:06:43.999Z,23.80
2022-08-19T02:07:44.004Z,21.50
2022-08-19T02:08:43.979Z,23.10
2022-08-19T02:09:43.966Z,24.80
2022-08-19T02:10:43.959Z,28.80
2022-08-19T02:11:43.943Z,26.20
2022-08-19T02:12:43.981Z,25.10
2022-08-19T02:13:43.930Z,25.90
2022-08-19T02:14:43.916Z,28.00
2022-08-19T02:15:43.906Z,28.40
2022-08-19T02:16:43.889Z,23.80
2022-08-19T02:17:43.884Z,29.10
2022-08-19T02:18:43.892Z,24.20
2022-08-19T02:19:43.863Z,29.60
2022-08-19T02:20:43.856Z,23.60
2022-08-19T02:21:43.846Z,25.80
2022-08-19T02:22:43.838Z,27.10
2022-08-19T02:23:43.843Z,25.90
2022-08-19T02:24:43.818Z,26.00
2022-08-19T02:25:43.817Z,23.40
2022-08-19T02:26:43.801Z,26.80
2022-08-19T02:27:43.790Z,23.80
2022-08-19T02:28:43.817Z,23.50
2022-08-19T02:29:43.779Z,20.50
2022-08-19T02:30:43.759Z,22.10
2022-08-19T02:31:43.752Z,24.00
2022-08-19T02:32:44.814Z,27.00
2022-08-19T02:33:43.735Z,22.30
2022-08-19T02:34:43.727Z,28.50
2022-08-19T02:35:44.710Z,24.10
2022-08-19T02:36:43.697Z,23.70
2022-08-19T02:37:43.688Z,22.60
2022-08-19T02:38:47.029Z,24.10
2022-08-19T02:39:44.718Z,22.40
2022-08-19T02:40:43.657Z,22.00
2022-08-19T02:41:43.650Z,25.60
2022-08-19T02:42:43.642Z,28.70
2022-08-19T02:44:11.454Z,21.90
2022-08-19T02:44:44.633Z,26.40
2022-08-19T02:45:43.611Z,28.00
2022-08-19T02:46:43.600Z,20.90
2022-08-19T02:47:43.602Z,23.10
2022-08-19T02:48:43.577Z,23.20
2022-08-19T02:49:43.574Z,21.70
2022-08-19T02:50:53.348Z,18.70
2022-08-19T02:51:44.564Z,19.90
2022-08-19T02:52:43.546Z,20.90
2022-08-19T02:53:43.535Z,18.40
2022-08-19T02:54:43.524Z,22.50
2022-08-19T02:55:45.972Z,19.20
2022-08-19T02:56:43.505Z,23.40
2022-08-19T02:57:43.496Z,21.50
2022-08-19T02:58:43.494Z,18.40
2022-08-19T02:59:43.475Z,20.30
2022-08-19T03:00:43.496Z,19.80
2022-08-19T03:01:43.545Z,26.10
2022-08-19T03:02:43.448Z,16.30
2022-08-19T03:03:43.440Z,17.00
2022-08-19T03:04:43.428Z,22.60
2022-08-19T03:05:56.214Z,22.70
2022-08-19T03:06:44.409Z,22.20
2022-08-19T03:07:43.401Z,24.50
2022-08-19T03:08:43.389Z,18.70
2022-08-19T03:09:43.377Z,23.40
2022-08-19T03:10:43.366Z,19.20
2022-08-19T03:11:43.375Z,21.00
2022-08-19T03:12:43.349Z,17.30
2022-08-19T03:13:43.341Z,22.40
2022-08-19T03:14:43.328Z,18.80
2022-08-19T03:15:43.315Z,19.60
2022-08-19T03:16:43.318Z,17.10
2022-08-19T03:17:43.297Z,18.60
2022-08-19T03:18:43.283Z,24.00
2022-08-19T03:19:43.277Z,22.30
2022-08-19T03:20:43.267Z,17.20
2022-08-19T03:21:43.275Z,17.40
2022-08-19T03:22:43.244Z,17.10
2022-08-19T03:23:43.235Z,16.70
2022-08-19T03:24:43.222Z,16.30
2022-08-19T03:25:43.219Z,19.20
2022-08-19T03:26:43.248Z,22.00
2022-08-19T03:27:43.195Z,19.00
2022-08-19T03:28:43.201Z,16.50
2022-08-19T03:29:44.201Z,16.90
2022-08-19T03:30:43.660Z,17.10
2022-08-19T03:31:51.088Z,19.60
2022-08-19T03:32:45.314Z,16.90
2022-08-19T03:33:43.137Z,17.60
2022-08-19T03:34:43.127Z,18.20
2022-08-19T03:35:43.119Z,18.30
2022-08-19T03:36:43.108Z,16.90
2022-08-19T03:37:43.125Z,15.90
2022-08-19T03:38:43.158Z,18.20
2022-08-19T03:39:43.134Z,13.60
2022-08-19T03:40:43.073Z,15.60
2022-08-19T03:41:44.615Z,15.90
2022-08-19T03:42:56.774Z,13.40
2022-08-19T03:43:44.048Z,13.40
2022-08-19T03:44:43.035Z,12.90
2022-08-19T03:45:43.025Z,19.10
2022-08-19T03:46:44.615Z,16.60
2022-08-19T03:47:43.024Z,15.90
2022-08-19T03:50:08.870Z,14.00
2022-08-19T03:51:08.881Z,17.30
2022-08-19T03:52:08.878Z,17.00
2022-08-19T03:53:08.899Z,16.10
2022-08-19T03:54:08.866Z,14.50
2022-08-19T03:55:08.839Z,19.90
2022-08-19T03:56:08.841Z,16.50
2022-08-19T03:57:08.828Z,17.20
2022-08-19T03:58:08.820Z,14.10
2022-08-19T03:59:09.949Z,17.50
2022-08-19T04:00:13.421Z,17.00
2022-08-19T04:01:09.950Z,16.30
2022-08-19T04:02:09.941Z,16.20
2022-08-19T04:03:09.900Z,16.90
2022-08-19T04:04:09.908Z,13.00
2022-08-19T04:05:09.884Z,13.50
2022-08-19T04:06:09.870Z,15.70
2022-08-19T04:07:09.863Z,20.10
2022-08-19T04:08:13.749Z,21.10
2022-08-19T04:09:10.882Z,13.70
2022-08-19T04:10:10.698Z,17.50
2022-08-19T04:11:09.820Z,18.00
2022-08-19T04:12:09.813Z,16.80
2022-08-19T04:13:09.805Z,18.80
2022-08-19T04:14:09.809Z,18.60
2022-08-19T04:15:09.807Z,13.80
2022-08-19T04:16:09.777Z,13.10
2022-08-19T04:17:09.769Z,15.90
2022-08-19T04:18:09.760Z,17.10
2022-08-19T04:19:09.768Z,14.30
2022-08-19T04:20:09.754Z,12.50
2022-08-19T04:21:09.733Z,14.20
2022-08-19T04:22:09.763Z,11.40
2022-08-19T04:23:09.708Z,11.70
2022-08-19T04:24:09.714Z,15.00
2022-08-19T04:25:09.708Z,13.30
2022-08-19T04:26:09.678Z,11.80
2022-08-19T04:27:10.671Z,12.80
2022-08-19T04:28:09.663Z,15.00
2022-08-19T04:29:12.576Z,11.50
2022-08-19T04:30:10.660Z,11.70
2022-08-19T04:31:09.653Z,13.50
2022-08-19T04:32:09.965Z,16.80
2022-08-19T04:33:10.615Z,14.50
2022-08-19T04:34:09.612Z,16.10
2022-08-19T04:35:16.920Z,16.70
2022-08-19T04:36:10.605Z,14.90
2022-08-19T04:37:09.572Z,19.60
2022-08-19T04:38:09.565Z,21.10
2022-08-19T04:39:09.570Z,17.80
2022-08-19T04:40:09.728Z,19.40
2022-08-19T04:41:09.539Z,16.30
2022-08-19T04:42:09.528Z,17.70
2022-08-19T04:43:09.517Z,22.50
2022-08-19T04:44:09.524Z,21.80
2022-08-19T04:45:09.590Z,19.10
2022-08-19T04:46:09.491Z,19.50
2022-08-19T04:47:11.277Z,21.50
2022-08-19T04:48:27.289Z,16.80
2022-08-19T04:49:13.701Z,16.70
2022-08-19T04:50:09.456Z,16.50
2022-08-19T04:51:09.441Z,16.20
2022-08-19T04:52:09.466Z,17.10
2022-08-19T04:53:09.425Z,16.60
2022-08-19T04:54:09.420Z,15.30
2022-08-19T04:55:09.432Z,15.40
2022-08-19T04:56:09.404Z,18.70
2022-08-19T04:57:09.511Z,19.20
2022-08-19T04:58:09.380Z,19.60
2022-08-19T04:59:09.374Z,15.70
2022-08-19T05:00:09.383Z,21.00
2022-08-19T05:01:09.414Z,16.00
2022-08-19T05:02:09.361Z,19.90
2022-08-19T05:03:09.332Z,16.40
2022-08-19T05:04:09.328Z,17.70
2022-08-19T05:05:09.336Z,20.90
2022-08-19T05:06:09.305Z,19.30
2022-08-19T05:07:09.295Z,16.20
2022-08-19T05:08:09.290Z,17.70
2022-08-19T05:09:09.278Z,15.10
2022-08-19T05:10:09.280Z,17.90
2022-08-19T05:11:09.260Z,16.20
2022-08-19T05:12:09.249Z,18.20
2022-08-19T05:13:09.243Z,19.90
2022-08-19T05:14:09.248Z,18.10
2022-08-19T05:15:09.246Z,17.30
2022-08-19T05:16:09.203Z,17.70
2022-08-19T05:17:26.662Z,15.10
2022-08-19T05:18:11.187Z,18.10
2022-08-19T05:19:09.177Z,16.60
2022-08-19T05:20:09.230Z,18.80
2022-08-19T05:21:09.162Z,15.40
2022-08-19T05:22:09.151Z,18.20
2022-08-19T05:23:09.141Z,16.80
2022-08-19T05:24:10.133Z,18.10
2022-08-19T05:25:12.918Z,17.70
2022-08-19T05:26:10.150Z,15.50
2022-08-19T05:27:09.102Z,18.70
2022-08-19T05:28:09.087Z,18.30
2022-08-19T05:29:09.081Z,16.30
2022-08-19T05:30:09.107Z,17.90
2022-08-19T05:31:09.077Z,17.00
2022-08-19T05:32:09.052Z,14.20
2022-08-19T05:33:09.042Z,16.80
2022-08-19T05:34:18.457Z,12.30
2022-08-19T05:35:10.041Z,15.20
2022-08-19T05:36:09.034Z,12.40
2022-08-19T05:37:09.006Z,12.50
2022-08-19T05:38:08.998Z,13.20
2022-08-19T05:39:08.989Z,15.20
2022-08-19T05:40:09.183Z,13.50
2022-08-19T05:41:08.997Z,16.60
2022-08-19T05:42:08.958Z,14.20
2022-08-19T05:43:08.946Z,11.70
2022-08-19T05:44:08.939Z,15.00
2022-08-19T05:45:08.928Z,9.80
2022-08-19T05:46:08.948Z,13.30
2022-08-19T05:47:08.909Z,12.00
2022-08-19T05:48:08.898Z,12.20
2022-08-19T05:49:08.891Z,10.50
2022-08-19T05:50:08.880Z,16.30
2022-08-19T05:51:08.897Z,10.30
2022-08-19T05:52:08.861Z,12.30
2022-08-19T05:53:08.854Z,13.00
2022-08-19T05:54:08.842Z,10.50
2022-08-19T05:55:08.839Z,10.50
2022-08-19T05:56:08.839Z,12.70
2022-08-19T05:57:08.814Z,11.90
2022-08-19T05:58:08.829Z,11.60
2022-08-19T05:59:08.795Z,10.50
2022-08-19T06:00:08.783Z,13.90
2022-08-19T06:01:08.822Z,12.90
2022-08-19T06:02:08.802Z,12.70
2022-08-19T06:03:12.525Z,13.50
2022-08-19T06:04:08.749Z,11.80
2022-08-19T06:05:08.734Z,10.30
2022-08-19T06:06:08.773Z,14.00
2022-08-19T06:07:12.172Z,10.10
2022-08-19T06:08:08.704Z,11.10
2022-08-19T06:09:08.703Z,12.80
2022-08-19T06:10:08.697Z,10.80
2022-08-19T06:11:08.682Z,16.30
2022-08-19T06:12:08.691Z,12.20
2022-08-19T06:13:08.666Z,14.90
2022-08-19T06:14:09.650Z,10.30
2022-08-19T06:15:09.645Z,14.90
2022-08-19T06:16:08.635Z,11.30
2022-08-19T06:17:08.640Z,14.70
2022-08-19T06:18:08.617Z,14.40
2022-08-19T06:19:08.608Z,11.30
2022-08-19T06:20:08.606Z,13.20
2022-08-19T06:21:08.607Z,11.30
2022-08-19T06:22:08.648Z,14.70
2022-08-19T06:23:08.570Z,13.70
2022-08-19T06:24:08.559Z,12.50
2022-08-19T06:25:08.552Z,14.30
2022-08-19T06:26:08.544Z,13.30
2022-08-19T06:27:08.551Z,14.70
2022-08-19T06:28:15.934Z,12.00
2022-08-19T06:29:10.511Z,10.70
2022-08-19T06:30:09.499Z,11.70
2022-08-19T06:31:08.494Z,13.50
2022-08-19T06:32:08.512Z,10.80
2022-08-19T06:33:08.472Z,11.00
2022-08-19T06:34:08.477Z,12.30
2022-08-19T06:35:08.465Z,8.10
2022-08-19T06:36:08.443Z,12.00
2022-08-19T06:37:08.476Z,10.70
2022-08-19T06:38:08.433Z,9.90
2022-08-19T06:39:08.422Z,9.20
2022-08-19T06:40:08.453Z,12.30
2022-08-19T06:41:08.442Z,12.80
2022-08-19T06:42:10.310Z,12.90
2022-08-19T06:43:09.369Z,7.90
2022-08-19T06:44:08.390Z,11.70
2022-08-19T06:45:09.344Z,10.40
2022-08-19T06:46:08.346Z,8.80
2022-08-19T06:47:09.644Z,12.50
2022-08-19T06:48:09.342Z,8.80
2022-08-19T06:49:08.342Z,11.00
2022-08-19T06:50:08.318Z,13.90
2022-08-19T06:51:08.603Z,9.40
2022-08-19T06:52:08.290Z,14.60
2022-08-19T06:53:08.308Z,9.90
2022-08-19T06:54:08.417Z,10.60
2022-08-19T06:55:09.263Z,10.60
2022-08-19T06:56:08.252Z,10.50
2022-08-19T06:57:08.243Z,14.00
2022-08-19T06:58:08.272Z,11.20
2022-08-19T06:59:08.221Z,16.60
2022-08-19T07:00:12.244Z,9.80
2022-08-19T07:01:09.210Z,11.80
2022-08-19T07:02:08.234Z,11.10
2022-08-19T07:03:08.918Z,10.80
2022-08-19T07:04:09.171Z,12.20
2022-08-19T07:05:08.165Z,13.40
2022-08-19T07:06:09.807Z,11.20
2022-08-19T07:07:19.707Z,9.50
2022-08-19T07:08:09.160Z,13.00
2022-08-19T07:09:08.125Z,11.30
2022-08-19T07:10:08.115Z,15.10
2022-08-19T07:11:09.370Z,12.00
2022-08-19T07:12:08.095Z,13.10
2022-08-19T07:13:08.122Z,9.80
2022-08-19T07:14:19.068Z,12.80
2022-08-19T07:15:09.066Z,12.90
2022-08-19T07:16:08.067Z,13.80
2022-08-19T07:17:08.050Z,13.40
2022-08-19T07:18:08.069Z,12.70
2022-08-19T07:19:15.544Z,11.50
2022-08-19T07:20:09.462Z,13.50
2022-08-19T07:21:09.378Z,13.80
2022-08-19T07:22:08.001Z,10.90
2022-08-19T07:23:09.036Z,12.00
2022-08-19T07:24:08.007Z,14.80
2022-08-19T07:25:08.005Z,13.30
2022-08-19T07:26:07.965Z,13.70
2022-08-19T07:27:10.617Z,13.10
2022-08-19T07:28:08.941Z,14.30
2022-08-19T07:29:08.948Z,16.20
2022-08-19T07:30:07.922Z,13.50
2022-08-19T07:31:07.912Z,12.80
2022-08-19T07:32:07.927Z,16.50
2022-08-19T07:33:08.924Z,15.70
2022-08-19T07:34:07.897Z,12.20
2022-08-19T07:35:07.894Z,13.00
2022-08-19T07:36:07.865Z,18.90
2022-08-19T07:37:07.858Z,11.10
2022-08-19T07:38:07.853Z,12.80
2022-08-19T07:39:07.857Z,11.60
2022-08-19T07:40:07.948Z,13.40
2022-08-19T07:41:07.820Z,10.80
2022-08-19T07:42:07.871Z,14.50
2022-08-19T07:43:10.191Z,14.30
2022-08-19T07:44:08.819Z,12.80
2022-08-19T07:45:07.785Z,11.00
2022-08-19T07:47:07.760Z,11.30
2022-08-19T07:48:08.768Z,14.80
2022-08-19T07:49:07.775Z,11.80
2022-08-19T07:50:08.658Z,13.40
2022-08-19T07:51:07.723Z,10.00
2022-08-19T07:52:07.714Z,10.90
2022-08-19T07:53:07.707Z,17.30
2022-08-19T07:54:07.694Z,10.10
2022-08-19T07:55:07.705Z,11.60
2022-08-19T07:56:08.683Z,12.70
2022-08-19T07:57:07.699Z,12.30
2022-08-19T07:58:07.725Z,13.10
2022-08-19T07:59:07.735Z,15.20
2022-08-19T08:00:07.719Z,12.10
2022-08-19T08:01:07.632Z,12.40
2022-08-19T08:02:07.673Z,12.60
2022-08-19T08:03:07.619Z,11.90
2022-08-19T08:04:07.608Z,15.80
2022-08-19T08:05:07.625Z,13.20
2022-08-19T08:06:07.616Z,13.30
2022-08-19T08:07:07.575Z,11.70
2022-08-19T08:08:07.568Z,11.20
2022-08-19T08:09:07.575Z,10.30
2022-08-19T08:10:12.618Z,13.00
2022-08-19T08:11:08.538Z,11.20
2022-08-19T08:12:32.972Z,11.30
2022-08-19T08:13:11.035Z,13.10
2022-08-19T08:14:07.509Z,10.20
2022-08-19T08:15:08.570Z,12.30
2022-08-19T08:16:07.494Z,9.90
2022-08-19T08:17:10.863Z,14.20
2022-08-19T08:18:07.479Z,12.10
2022-08-19T08:19:14.755Z,14.00
2022-08-19T08:20:08.518Z,11.20
2022-08-19T08:21:07.444Z,12.40
2022-08-19T08:22:07.437Z,13.00
2022-08-19T08:23:07.436Z,11.10
2022-08-19T08:24:07.423Z,11.20
2022-08-19T08:25:07.408Z,12.20
2022-08-19T08:26:07.416Z,12.20
2022-08-19T08:27:11.088Z,10.30
2022-08-19T08:28:07.379Z,9.50
2022-08-19T08:29:12.261Z,11.30
2022-08-19T08:30:08.357Z,13.20
2022-08-19T08:31:09.418Z,11.70
2022-08-19T08:32:14.831Z,15.20
2022-08-19T08:33:08.380Z,11.00
2022-08-19T08:34:07.320Z,12.60
2022-08-19T08:35:07.309Z,14.60
2022-08-19T08:36:07.315Z,13.10
2022-08-19T08:37:07.289Z,13.10
2022-08-19T08:38:07.301Z,11.20
2022-08-19T08:39:07.267Z,9.90
2022-08-19T08:40:08.996Z,10.60
2022-08-19T08:41:08.276Z,9.00
2022-08-19T08:42:09.903Z,9.00
2022-08-19T08:43:07.264Z,11.70
2022-08-19T08:44:07.218Z,11.40
2022-08-19T08:45:07.250Z,11.00
2022-08-19T08:46:07.562Z,14.40
2022-08-19T08:47:07.922Z,11.20
2022-08-19T08:48:07.182Z,11.20
2022-08-19T08:49:08.172Z,13.00
2022-08-19T08:50:07.158Z,16.90
2022-08-19T08:51:07.150Z,11.40
2022-08-19T08:52:07.158Z,10.10
2022-08-19T08:53:07.136Z,13.10
2022-08-19T08:54:07.124Z,9.30
2022-08-19T08:55:10.096Z,12.40
2022-08-19T08:56:08.103Z,11.60
2022-08-19T08:57:07.114Z,11.00
2022-08-19T08:58:07.092Z,11.80
2022-08-19T08:59:07.080Z,12.50
2022-08-19T09:00:07.068Z,9.10
2022-08-19T09:01:08.105Z,11.70
2022-08-19T09:02:07.062Z,12.40
2022-08-19T09:03:07.037Z,11.60
2022-08-19T09:04:07.043Z,11.60
2022-08-19T09:05:07.020Z,9.70
2022-08-19T09:06:12.087Z,16.30
2022-08-19T09:07:18.195Z,11.80
2022-08-19T09:08:07.986Z,12.20
2022-08-19T09:09:12.227Z,13.50
2022-08-19T09:10:07.973Z,14.60
2022-08-19T09:11:06.961Z,11.10
2022-08-19T09:12:06.990Z,12.70
2022-08-19T09:13:09.237Z,11.60
2022-08-19T09:14:06.934Z,13.10
2022-08-19T09:15:06.930Z,11.80
2022-08-19T09:16:06.916Z,14.90
2022-08-19T09:17:06.907Z,14.70
2022-08-19T09:18:07.048Z,11.50
2022-08-19T09:19:06.887Z,12.50
2022-08-19T09:20:09.176Z,11.20
2022-08-19T09:21:06.867Z,15.90
2022-08-19T09:22:06.862Z,10.50
2022-08-19T09:23:06.860Z,12.20
2022-08-19T09:24:06.840Z,9.20
2022-08-19T09:25:06.831Z,9.90
2022-08-19T09:26:06.821Z,10.30
2022-08-19T09:27:08.411Z,14.30
2022-08-19T09:28:15.077Z,11.50
2022-08-19T09:29:07.787Z,10.10
2022-08-19T09:30:06.790Z,11.20
2022-08-19T09:31:06.779Z,11.00
2022-08-19T09:32:06.761Z,9.20
2022-08-19T09:33:07.769Z,7.60
2022-08-19T09:34:06.741Z,14.00
2022-08-19T09:35:08.898Z,9.20
2022-08-19T09:36:08.694Z,11.10
2022-08-19T09:37:06.708Z,10.90
2022-08-19T09:38:06.743Z,13.30
2022-08-19T09:39:16.181Z,9.20
2022-08-19T09:40:07.744Z,8.90
2022-08-19T09:41:06.689Z,12.00
2022-08-19T09:42:06.665Z,9.60
2022-08-19T09:43:10.064Z,9.80
2022-08-19T09:44:07.645Z,9.00
2022-08-19T09:45:10.212Z,13.20
2022-08-19T09:46:06.627Z,7.90
2022-08-19T09:47:06.617Z,8.40
2022-08-19T09:48:06.608Z,9.70
2022-08-19T09:49:06.952Z,11.50
2022-08-19T09:50:06.668Z,11.90
2022-08-19T09:51:06.580Z,9.90
2022-08-19T09:52:06.576Z,10.20
2022-08-19T09:53:06.862Z,8.50
2022-08-19T09:54:06.569Z,12.10
2022-08-19T09:55:07.212Z,8.90
2022-08-19T09:56:06.533Z,9.20
2022-08-19T09:57:07.666Z,9.40
2022-08-19T09:58:06.516Z,9.80
2022-08-19T09:59:06.528Z,11.80
2022-08-19T10:00:06.516Z,7.80
2022-08-19T10:01:06.560Z,11.70
2022-08-19T10:02:11.029Z,12.40
2022-08-19T10:03:07.205Z,8.50
2022-08-19T10:04:14.694Z,10.30
2022-08-19T10:05:08.456Z,8.40
2022-08-19T10:06:15.112Z,12.00
2022-08-19T10:07:07.512Z,12.10
2022-08-19T10:08:06.422Z,9.40
2022-08-19T10:09:09.025Z,10.50
2022-08-19T10:10:06.402Z,10.60
2022-08-19T10:11:28.747Z,11.70
2022-08-19T10:12:11.263Z,15.40
2022-08-19T10:13:06.369Z,12.60
2022-08-19T10:14:06.360Z,10.40
2022-08-19T10:15:06.383Z,11.00
2022-08-19T10:16:06.345Z,10.30
2022-08-19T10:17:19.258Z,9.70
2022-08-19T10:18:07.348Z,10.60
2022-08-19T10:19:06.317Z,7.60
2022-08-19T10:20:06.326Z,10.80
2022-08-19T10:21:06.299Z,8.40
2022-08-19T10:22:06.296Z,11.10
2022-08-19T10:23:06.282Z,8.20
2022-08-19T10:24:06.271Z,11.70
2022-08-19T10:25:06.275Z,10.20
2022-08-19T10:26:06.285Z,6.00
2022-08-19T10:27:06.246Z,10.00
2022-08-19T10:28:06.233Z,9.10
2022-08-19T10:29:06.225Z,9.80
2022-08-19T10:30:09.891Z,9.80
2022-08-19T10:31:06.201Z,8.10
2022-08-19T10:32:09.456Z,10.00
2022-08-19T10:33:10.853Z,8.80
2022-08-19T10:34:10.004Z,9.70
2022-08-19T10:35:06.246Z,13.00
2022-08-19T10:36:06.169Z,11.60
2022-08-19T10:37:06.144Z,11.30
2022-08-19T10:38:06.289Z,9.30
2022-08-19T10:39:06.124Z,10.70
2022-08-19T10:40:06.200Z,10.10
2022-08-19T10:41:06.106Z,8.70
2022-08-19T10:42:06.099Z,7.60
2022-08-19T10:43:06.093Z,9.80
2022-08-19T10:44:06.080Z,9.40
2022-08-19T10:45:06.108Z,13.90
2022-08-19T10:46:06.058Z,8.20
2022-08-19T10:47:17.596Z,8.10
2022-08-19T10:48:07.043Z,6.80
2022-08-19T10:49:07.033Z,9.90
2022-08-19T10:50:06.052Z,8.70
2022-08-19T10:51:06.014Z,11.50
2022-08-19T10:52:06.006Z,9.60
2022-08-19T10:53:08.112Z,8.50
2022-08-19T10:54:06.883Z,9.60
2022-08-19T10:55:08.675Z,11.90
2022-08-19T10:56:05.964Z,7.80
2022-08-19T10:57:05.953Z,13.80
2022-08-19T10:58:06.206Z,11.50
2022-08-19T10:59:05.937Z,11.80
2022-08-19T11:00:05.928Z,8.40
2022-08-19T11:01:06.000Z,9.50
2022-08-19T11:02:05.913Z,7.00
2022-08-19T11:03:05.898Z,10.40
2022-08-19T11:04:05.896Z,10.70
2022-08-19T11:05:12.726Z,9.00
2022-08-19T11:06:06.885Z,7.30
2022-08-19T11:07:05.862Z,9.40
2022-08-19T11:08:22.634Z,9.10
2022-08-19T11:09:06.842Z,9.00
2022-08-19T11:10:08.333Z,10.60
2022-08-19T11:11:05.839Z,7.60
2022-08-19T11:12:05.822Z,12.80
2022-08-19T11:13:05.805Z,10.20
2022-08-19T11:14:05.801Z,8.40
2022-08-19T11:15:05.786Z,7.80
2022-08-19T11:16:07.831Z,9.20
2022-08-19T11:17:06.767Z,8.30
2022-08-19T11:18:05.761Z,8.00
2022-08-19T11:19:06.748Z,10.70
2022-08-19T11:20:06.676Z,6.90
2022-08-19T11:21:05.760Z,6.40
2022-08-19T11:22:05.723Z,9.70
2022-08-19T11:23:05.718Z,9.60
2022-08-19T11:24:05.708Z,7.60
2022-08-19T11:25:05.701Z,9.00
2022-08-19T11:26:05.687Z,7.50
2022-08-19T11:27:05.692Z,7.70
2022-08-19T11:28:05.678Z,11.60
2022-08-19T11:29:05.661Z,9.00
2022-08-19T11:30:07.932Z,12.30
2022-08-19T11:31:05.651Z,7.80
2022-08-19T11:32:05.647Z,7.50
2022-08-19T11:33:05.623Z,8.60
2022-08-19T11:34:05.624Z,8.00
2022-08-19T11:35:05.604Z,8.10
2022-08-19T11:36:05.596Z,11.20
2022-08-19T11:37:05.607Z,9.70
2022-08-19T11:38:09.715Z,6.80
2022-08-19T11:39:06.571Z,7.50
2022-08-19T11:40:05.674Z,9.10
2022-08-19T11:41:05.551Z,8.20
2022-08-19T11:42:05.584Z,9.70
2022-08-19T11:43:05.551Z,8.20
2022-08-19T11:44:05.532Z,11.80
2022-08-19T11:45:05.513Z,6.90
2022-08-19T11:46:05.508Z,8.70
2022-08-19T11:47:08.842Z,10.60
2022-08-19T11:48:05.487Z,5.90
2022-08-19T11:49:05.473Z,10.50
2022-08-19T11:50:05.469Z,8.00
2022-08-19T11:51:05.451Z,7.10
2022-08-19T11:52:05.443Z,7.40
2022-08-19T11:53:05.803Z,12.00
2022-08-19T11:54:05.427Z,8.60
2022-08-19T11:55:05.418Z,6.70
2022-08-19T11:56:05.400Z,8.30
2022-08-19T11:57:05.398Z,8.30
2022-08-19T11:58:05.411Z,8.30
2022-08-19T11:59:05.381Z,10.10
2022-08-19T12:00:05.365Z,7.20
2022-08-19T12:01:05.369Z,8.60
2022-08-19T12:02:05.355Z,7.60
2022-08-19T12:03:05.383Z,8.70
2022-08-19T12:04:05.489Z,10.60
2022-08-19T12:05:09.032Z,8.60
2022-08-19T12:06:06.325Z,10.80
2022-08-19T12:07:05.308Z,15.10
2022-08-19T12:08:05.335Z,9.90
2022-08-19T12:09:05.286Z,8.30
2022-08-19T12:10:05.280Z,8.20
2022-08-19T12:11:05.265Z,9.70
2022-08-19T12:12:05.258Z,6.80
2022-08-19T12:13:05.255Z,10.90
2022-08-19T12:14:05.253Z,6.00
2022-08-19T12:15:05.229Z,12.10
2022-08-19T12:16:05.222Z,7.00
2022-08-19T12:17:05.212Z,8.40
2022-08-19T12:18:05.208Z,9.10
2022-08-19T12:19:05.307Z,7.70
2022-08-19T12:20:05.189Z,7.10
2022-08-19T12:21:05.177Z,8.20
2022-08-19T12:22:05.167Z,10.40
2022-08-19T12:23:05.158Z,7.00
2022-08-19T12:24:05.248Z,7.00
2022-08-19T12:25:05.136Z,8.10
2022-08-19T12:26:05.130Z,8.10
2022-08-19T12:27:05.133Z,6.60
2022-08-19T12:28:05.137Z,7.00
2022-08-19T12:29:05.131Z,6.20
2022-08-19T12:30:05.093Z,13.50
2022-08-19T12:31:05.086Z,8.30
2022-08-19T12:32:05.073Z,8.90
2022-08-19T12:33:05.061Z,10.90
2022-08-19T12:34:05.073Z,6.70
2022-08-19T12:35:05.047Z,10.20
2022-08-19T12:36:05.058Z,8.40
2022-08-19T12:37:05.027Z,8.80
2022-08-19T12:38:05.017Z,7.80
2022-08-19T12:39:05.025Z,8.40
2022-08-19T12:40:05.022Z,6.60
2022-08-19T12:41:04.991Z,7.00
2022-08-19T12:42:04.985Z,7.40
2022-08-19T12:43:04.970Z,8.90
2022-08-19T12:44:04.972Z,8.00
2022-08-19T12:45:04.952Z,8.70
2022-08-19T12:46:04.943Z,9.50
2022-08-19T12:47:04.934Z,10.70
2022-08-19T12:48:32.819Z,8.60
2022-08-19T12:49:17.495Z,7.60
2022-08-19T12:50:07.036Z,8.00
2022-08-19T12:51:05.897Z,7.50
2022-08-19T12:52:04.885Z,10.40
2022-08-19T12:53:04.879Z,10.20
2022-08-19T12:54:04.907Z,6.60
2022-08-19T12:55:04.861Z,9.70
2022-08-19T12:56:04.843Z,5.20
2022-08-19T12:57:05.838Z,7.80
2022-08-19T12:58:04.828Z,8.80
2022-08-19T12:59:04.816Z,9.20
2022-08-19T13:00:05.527Z,9.70